sensor_id;sensor_type;location;lat;lon;timestamp;P1;durP1;ratioP1;P2;durP2;ratioP2
22652;SDS011;11493;43.344;26.226;2024-01-30T00:00:14;16.23;;;10.25;;
22652;SDS011;11493;43.344;26.226;2024-01-30T00:02:42;21.23;;;11.63;;
22652;SDS011;11493;43.344;26.226;2024-01-30T00:05:09;20.75;;;12.23;;
22652;SDS011;11493;43.344;26.226;2024-01-30T00:07:37;24.55;;;13.95;;
22652;SDS011;11493;43.344;26.226;2024-01-30T00:10:04;25.30;;;11.70;;
22652;SDS011;11493;43.344;26.226;2024-01-30T00:12:32;19.92;;;12.93;;
22652;SDS011;11493;43.344;26.226;2024-01-30T00:14:59;19.52;;;11.65;;
22652;SDS011;11493;43.344;26.226;2024-01-30T00:17:26;17.27;;;10.75;;
22652;SDS011;11493;43.344;26.226;2024-01-30T00:19:53;23.70;;;12.85;;
22652;SDS011;11493;43.344;26.226;2024-01-30T00:22:21;24.60;;;12.15;;
22652;SDS011;11493;43.344;26.226;2024-01-30T00:24:48;18.08;;;12.07;;
22652;SDS011;11493;43.344;26.226;2024-01-30T00:27:15;21.52;;;12.23;;
22652;SDS011;11493;43.344;26.226;2024-01-30T00:29:43;22.55;;;12.93;;
22652;SDS011;11493;43.344;26.226;2024-01-30T00:32:10;19.48;;;12.00;;
22652;SDS011;11493;43.344;26.226;2024-01-30T00:34:37;17.85;;;10.95;;
22652;SDS011;11493;43.344;26.226;2024-01-30T00:37:04;20.77;;;11.82;;
22652;SDS011;11493;43.344;26.226;2024-01-30T00:39:31;16.52;;;10.82;;
22652;SDS011;11493;43.344;26.226;2024-01-30T00:41:58;21.23;;;12.77;;
22652;SDS011;11493;43.344;26.226;2024-01-30T00:44:25;18.48;;;12.52;;
22652;SDS011;11493;43.344;26.226;2024-01-30T00:46:52;19.95;;;12.82;;
22652;SDS011;11493;43.344;26.226;2024-01-30T00:49:20;25.38;;;14.27;;
22652;SDS011;11493;43.344;26.226;2024-01-30T00:51:47;33.78;;;16.08;;
22652;SDS011;11493;43.344;26.226;2024-01-30T00:54:14;37.58;;;18.50;;
22652;SDS011;11493;43.344;26.226;2024-01-30T00:56:41;23.10;;;13.38;;
22652;SDS011;11493;43.344;26.226;2024-01-30T00:59:08;25.73;;;14.20;;
22652;SDS011;11493;43.344;26.226;2024-01-30T01:01:35;26.80;;;14.88;;
22652;SDS011;11493;43.344;26.226;2024-01-30T01:04:03;26.35;;;14.57;;
22652;SDS011;11493;43.344;26.226;2024-01-30T01:06:30;25.20;;;12.68;;
22652;SDS011;11493;43.344;26.226;2024-01-30T01:08:57;18.55;;;10.38;;
22652;SDS011;11493;43.344;26.226;2024-01-30T01:11:26;17.80;;;11.23;;
22652;SDS011;11493;43.344;26.226;2024-01-30T01:13:53;17.80;;;11.65;;
22652;SDS011;11493;43.344;26.226;2024-01-30T01:16:21;20.73;;;11.65;;
22652;SDS011;11493;43.344;26.226;2024-01-30T01:18:48;20.13;;;11.88;;
22652;SDS011;11493;43.344;26.226;2024-01-30T01:21:15;23.95;;;12.20;;
22652;SDS011;11493;43.344;26.226;2024-01-30T01:23:42;20.48;;;12.00;;
22652;SDS011;11493;43.344;26.226;2024-01-30T01:26:10;16.73;;;10.05;;
22652;SDS011;11493;43.344;26.226;2024-01-30T01:28:39;17.50;;;11.23;;
22652;SDS011;11493;43.344;26.226;2024-01-30T01:31:07;19.02;;;11.57;;
22652;SDS011;11493;43.344;26.226;2024-01-30T01:33:35;20.23;;;12.23;;
22652;SDS011;11493;43.344;26.226;2024-01-30T01:36:03;22.25;;;12.02;;
22652;SDS011;11493;43.344;26.226;2024-01-30T01:38:31;18.77;;;11.00;;
22652;SDS011;11493;43.344;26.226;2024-01-30T01:40:58;19.17;;;11.15;;
22652;SDS011;11493;43.344;26.226;2024-01-30T01:43:25;18.55;;;10.80;;
22652;SDS011;11493;43.344;26.226;2024-01-30T01:45:52;19.02;;;10.52;;
22652;SDS011;11493;43.344;26.226;2024-01-30T01:48:19;18.23;;;10.77;;
22652;SDS011;11493;43.344;26.226;2024-01-30T01:50:47;20.25;;;10.70;;
22652;SDS011;11493;43.344;26.226;2024-01-30T01:53:14;17.27;;;10.85;;
22652;SDS011;11493;43.344;26.226;2024-01-30T01:55:42;19.15;;;11.20;;
22652;SDS011;11493;43.344;26.226;2024-01-30T01:58:09;17.15;;;10.77;;
22652;SDS011;11493;43.344;26.226;2024-01-30T02:00:39;18.02;;;11.40;;
22652;SDS011;11493;43.344;26.226;2024-01-30T02:03:10;20.85;;;11.52;;
22652;SDS011;11493;43.344;26.226;2024-01-30T02:05:39;16.97;;;10.07;;
22652;SDS011;11493;43.344;26.226;2024-01-30T02:08:08;21.48;;;12.57;;
22652;SDS011;11493;43.344;26.226;2024-01-30T02:10:35;16.83;;;11.02;;
22652;SDS011;11493;43.344;26.226;2024-01-30T02:13:03;19.75;;;11.32;;
22652;SDS011;11493;43.344;26.226;2024-01-30T02:15:31;20.48;;;11.10;;
22652;SDS011;11493;43.344;26.226;2024-01-30T02:17:58;22.83;;;12.73;;
22652;SDS011;11493;43.344;26.226;2024-01-30T02:20:25;18.35;;;11.60;;
22652;SDS011;11493;43.344;26.226;2024-01-30T02:22:56;17.08;;;10.65;;
22652;SDS011;11493;43.344;26.226;2024-01-30T02:25:35;15.93;;;10.73;;
22652;SDS011;11493;43.344;26.226;2024-01-30T02:28:05;19.55;;;10.65;;
22652;SDS011;11493;43.344;26.226;2024-01-30T02:30:32;21.80;;;12.02;;
22652;SDS011;11493;43.344;26.226;2024-01-30T02:32:59;22.25;;;12.05;;
22652;SDS011;11493;43.344;26.226;2024-01-30T02:35:26;23.48;;;12.73;;
22652;SDS011;11493;43.344;26.226;2024-01-30T02:37:54;22.63;;;13.18;;
22652;SDS011;11493;43.344;26.226;2024-01-30T02:40:24;17.67;;;11.35;;
22652;SDS011;11493;43.344;26.226;2024-01-30T02:42:51;20.50;;;11.65;;
22652;SDS011;11493;43.344;26.226;2024-01-30T02:45:18;20.17;;;11.20;;
22652;SDS011;11493;43.344;26.226;2024-01-30T02:47:45;17.67;;;10.95;;
22652;SDS011;11493;43.344;26.226;2024-01-30T02:50:12;16.58;;;11.05;;
22652;SDS011;11493;43.344;26.226;2024-01-30T02:52:42;21.90;;;12.57;;
22652;SDS011;11493;43.344;26.226;2024-01-30T02:55:11;20.50;;;12.10;;
22652;SDS011;11493;43.344;26.226;2024-01-30T02:57:39;19.88;;;12.30;;
22652;SDS011;11493;43.344;26.226;2024-01-30T03:00:06;19.60;;;11.63;;
22652;SDS011;11493;43.344;26.226;2024-01-30T03:02:36;18.13;;;11.15;;
22652;SDS011;11493;43.344;26.226;2024-01-30T03:05:03;16.48;;;11.32;;
22652;SDS011;11493;43.344;26.226;2024-01-30T03:07:32;16.90;;;10.80;;
22652;SDS011;11493;43.344;26.226;2024-01-30T03:10:00;14.18;;;10.35;;
22652;SDS011;11493;43.344;26.226;2024-01-30T03:12:27;17.27;;;11.10;;
22652;SDS011;11493;43.344;26.226;2024-01-30T03:14:54;16.33;;;10.88;;
22652;SDS011;11493;43.344;26.226;2024-01-30T03:17:21;18.33;;;11.45;;
22652;SDS011;11493;43.344;26.226;2024-01-30T03:19:48;18.05;;;11.63;;
22652;SDS011;11493;43.344;26.226;2024-01-30T03:22:15;18.65;;;12.48;;
22652;SDS011;11493;43.344;26.226;2024-01-30T03:24:42;24.40;;;13.32;;
22652;SDS011;11493;43.344;26.226;2024-01-30T03:27:09;18.58;;;11.85;;
22652;SDS011;11493;43.344;26.226;2024-01-30T03:29:36;22.38;;;12.75;;
22652;SDS011;11493;43.344;26.226;2024-01-30T03:32:04;24.08;;;12.55;;
22652;SDS011;11493;43.344;26.226;2024-01-30T03:34:31;19.95;;;11.50;;
22652;SDS011;11493;43.344;26.226;2024-01-30T03:36:58;22.48;;;12.93;;
22652;SDS011;11493;43.344;26.226;2024-01-30T03:39:25;21.98;;;12.57;;
22652;SDS011;11493;43.344;26.226;2024-01-30T03:41:53;23.70;;;12.02;;
22652;SDS011;11493;43.344;26.226;2024-01-30T03:44:20;21.80;;;12.32;;
22652;SDS011;11493;43.344;26.226;2024-01-30T03:46:46;23.20;;;12.85;;
22652;SDS011;11493;43.344;26.226;2024-01-30T03:49:14;19.85;;;12.38;;
22652;SDS011;11493;43.344;26.226;2024-01-30T03:51:41;20.27;;;11.80;;
22652;SDS011;11493;43.344;26.226;2024-01-30T03:54:11;18.85;;;11.05;;
22652;SDS011;11493;43.344;26.226;2024-01-30T03:56:38;19.55;;;11.75;;
22652;SDS011;11493;43.344;26.226;2024-01-30T03:59:06;18.83;;;11.52;;
22652;SDS011;11493;43.344;26.226;2024-01-30T04:01:33;17.20;;;10.52;;
22652;SDS011;11493;43.344;26.226;2024-01-30T04:04:00;15.55;;;11.02;;
22652;SDS011;11493;43.344;26.226;2024-01-30T04:06:27;19.10;;;10.75;;
22652;SDS011;11493;43.344;26.226;2024-01-30T04:08:54;17.45;;;11.02;;
22652;SDS011;11493;43.344;26.226;2024-01-30T04:11:22;18.08;;;11.00;;
22652;SDS011;11493;43.344;26.226;2024-01-30T04:13:49;18.90;;;12.00;;
22652;SDS011;11493;43.344;26.226;2024-01-30T04:16:19;18.33;;;11.10;;
22652;SDS011;11493;43.344;26.226;2024-01-30T04:18:49;21.38;;;12.10;;
22652;SDS011;11493;43.344;26.226;2024-01-30T04:21:16;20.00;;;11.32;;
22652;SDS011;11493;43.344;26.226;2024-01-30T04:23:43;17.52;;;10.85;;
22652;SDS011;11493;43.344;26.226;2024-01-30T04:26:10;19.10;;;11.57;;
22652;SDS011;11493;43.344;26.226;2024-01-30T04:28:37;19.20;;;12.13;;
22652;SDS011;11493;43.344;26.226;2024-01-30T04:31:04;16.80;;;12.18;;
22652;SDS011;11493;43.344;26.226;2024-01-30T04:33:31;20.35;;;13.20;;
22652;SDS011;11493;43.344;26.226;2024-01-30T04:35:58;27.48;;;14.00;;
22652;SDS011;11493;43.344;26.226;2024-01-30T04:38:25;22.33;;;12.73;;
22652;SDS011;11493;43.344;26.226;2024-01-30T04:40:52;27.20;;;15.40;;
22652;SDS011;11493;43.344;26.226;2024-01-30T04:43:20;21.23;;;12.73;;
22652;SDS011;11493;43.344;26.226;2024-01-30T04:45:48;21.55;;;13.20;;
22652;SDS011;11493;43.344;26.226;2024-01-30T04:48:16;34.10;;;16.48;;
22652;SDS011;11493;43.344;26.226;2024-01-30T04:50:43;35.42;;;22.33;;
22652;SDS011;11493;43.344;26.226;2024-01-30T04:53:10;25.67;;;15.05;;
22652;SDS011;11493;43.344;26.226;2024-01-30T04:55:37;26.73;;;15.55;;
22652;SDS011;11493;43.344;26.226;2024-01-30T04:58:04;29.13;;;15.48;;
22652;SDS011;11493;43.344;26.226;2024-01-30T05:00:31;39.85;;;19.95;;
22652;SDS011;11493;43.344;26.226;2024-01-30T05:02:58;37.13;;;21.25;;
22652;SDS011;11493;43.344;26.226;2024-01-30T05:05:25;40.38;;;21.27;;
22652;SDS011;11493;43.344;26.226;2024-01-30T05:07:52;33.95;;;19.52;;
22652;SDS011;11493;43.344;26.226;2024-01-30T05:10:19;29.67;;;16.60;;
22652;SDS011;11493;43.344;26.226;2024-01-30T05:12:47;35.22;;;20.10;;
22652;SDS011;11493;43.344;26.226;2024-01-30T05:15:14;36.95;;;19.80;;
22652;SDS011;11493;43.344;26.226;2024-01-30T05:17:41;30.70;;;16.10;;
22652;SDS011;11493;43.344;26.226;2024-01-30T05:20:08;25.08;;;15.10;;
22652;SDS011;11493;43.344;26.226;2024-01-30T05:22:37;31.40;;;16.50;;
22652;SDS011;11493;43.344;26.226;2024-01-30T05:25:05;25.52;;;14.27;;
22652;SDS011;11493;43.344;26.226;2024-01-30T05:27:33;24.08;;;14.25;;
22652;SDS011;11493;43.344;26.226;2024-01-30T05:30:00;26.00;;;14.55;;
22652;SDS011;11493;43.344;26.226;2024-01-30T05:32:27;21.90;;;13.38;;
22652;SDS011;11493;43.344;26.226;2024-01-30T05:34:54;23.35;;;12.75;;
22652;SDS011;11493;43.344;26.226;2024-01-30T05:37:21;22.77;;;13.13;;
22652;SDS011;11493;43.344;26.226;2024-01-30T05:39:48;23.48;;;13.20;;
22652;SDS011;11493;43.344;26.226;2024-01-30T05:42:16;25.65;;;13.38;;
22652;SDS011;11493;43.344;26.226;2024-01-30T05:44:43;23.95;;;13.40;;
22652;SDS011;11493;43.344;26.226;2024-01-30T05:47:10;25.05;;;13.63;;
22652;SDS011;11493;43.344;26.226;2024-01-30T05:49:37;26.23;;;13.63;;
22652;SDS011;11493;43.344;26.226;2024-01-30T05:52:05;33.63;;;14.52;;
22652;SDS011;11493;43.344;26.226;2024-01-30T05:54:33;22.40;;;13.93;;
22652;SDS011;11493;43.344;26.226;2024-01-30T05:57:00;30.20;;;14.65;;
22652;SDS011;11493;43.344;26.226;2024-01-30T05:59:28;28.67;;;14.45;;
22652;SDS011;11493;43.344;26.226;2024-01-30T06:01:55;28.17;;;15.80;;
22652;SDS011;11493;43.344;26.226;2024-01-30T06:04:22;27.42;;;15.32;;
22652;SDS011;11493;43.344;26.226;2024-01-30T06:06:50;26.10;;;14.15;;
22652;SDS011;11493;43.344;26.226;2024-01-30T06:09:17;26.13;;;13.70;;
22652;SDS011;11493;43.344;26.226;2024-01-30T06:11:45;25.27;;;14.00;;
22652;SDS011;11493;43.344;26.226;2024-01-30T06:14:12;24.20;;;13.80;;
22652;SDS011;11493;43.344;26.226;2024-01-30T06:16:39;24.95;;;13.55;;
22652;SDS011;11493;43.344;26.226;2024-01-30T06:19:07;23.75;;;14.77;;
22652;SDS011;11493;43.344;26.226;2024-01-30T06:21:34;29.15;;;14.90;;
22652;SDS011;11493;43.344;26.226;2024-01-30T06:24:04;26.63;;;14.90;;
22652;SDS011;11493;43.344;26.226;2024-01-30T06:26:32;25.33;;;13.82;;
22652;SDS011;11493;43.344;26.226;2024-01-30T06:28:59;26.02;;;13.85;;
22652;SDS011;11493;43.344;26.226;2024-01-30T06:31:26;28.77;;;15.55;;
22652;SDS011;11493;43.344;26.226;2024-01-30T06:33:53;53.80;;;26.65;;
22652;SDS011;11493;43.344;26.226;2024-01-30T06:36:20;134.38;;;63.63;;
22652;SDS011;11493;43.344;26.226;2024-01-30T06:38:47;55.22;;;27.88;;
22652;SDS011;11493;43.344;26.226;2024-01-30T06:41:15;35.17;;;20.77;;
22652;SDS011;11493;43.344;26.226;2024-01-30T06:43:42;25.55;;;15.23;;
22652;SDS011;11493;43.344;26.226;2024-01-30T06:46:11;30.20;;;12.98;;
22652;SDS011;11493;43.344;26.226;2024-01-30T06:48:39;29.13;;;15.15;;
22652;SDS011;11493;43.344;26.226;2024-01-30T06:51:07;25.38;;;14.30;;
22652;SDS011;11493;43.344;26.226;2024-01-30T06:53:34;28.90;;;14.82;;
22652;SDS011;11493;43.344;26.226;2024-01-30T06:56:02;27.08;;;15.02;;
22652;SDS011;11493;43.344;26.226;2024-01-30T06:58:29;33.40;;;16.42;;
22652;SDS011;11493;43.344;26.226;2024-01-30T07:00:56;29.98;;;15.55;;
22652;SDS011;11493;43.344;26.226;2024-01-30T07:03:23;31.08;;;16.33;;
22652;SDS011;11493;43.344;26.226;2024-01-30T07:05:50;25.23;;;16.08;;
22652;SDS011;11493;43.344;26.226;2024-01-30T07:08:18;30.98;;;17.00;;
22652;SDS011;11493;43.344;26.226;2024-01-30T07:10:45;45.15;;;28.60;;
22652;SDS011;11493;43.344;26.226;2024-01-30T07:13:12;45.40;;;29.58;;
22652;SDS011;11493;43.344;26.226;2024-01-30T07:15:39;26.10;;;15.70;;
22652;SDS011;11493;43.344;26.226;2024-01-30T07:18:06;30.08;;;14.98;;
22652;SDS011;11493;43.344;26.226;2024-01-30T07:20:34;28.35;;;16.38;;
22652;SDS011;11493;43.344;26.226;2024-01-30T07:23:02;58.88;;;30.55;;
22652;SDS011;11493;43.344;26.226;2024-01-30T07:25:29;27.77;;;17.92;;
22652;SDS011;11493;43.344;26.226;2024-01-30T07:27:57;30.63;;;16.50;;
22652;SDS011;11493;43.344;26.226;2024-01-30T07:30:24;34.95;;;17.55;;
22652;SDS011;11493;43.344;26.226;2024-01-30T07:32:51;32.92;;;17.45;;
22652;SDS011;11493;43.344;26.226;2024-01-30T07:35:18;32.08;;;17.52;;
22652;SDS011;11493;43.344;26.226;2024-01-30T07:37:45;52.22;;;23.15;;
22652;SDS011;11493;43.344;26.226;2024-01-30T07:40:13;70.55;;;30.10;;
22652;SDS011;11493;43.344;26.226;2024-01-30T07:42:40;93.47;;;43.53;;
22652;SDS011;11493;43.344;26.226;2024-01-30T07:45:07;73.55;;;32.80;;
22652;SDS011;11493;43.344;26.226;2024-01-30T07:47:34;66.50;;;29.75;;
22652;SDS011;11493;43.344;26.226;2024-01-30T07:50:02;30.80;;;16.42;;
22652;SDS011;11493;43.344;26.226;2024-01-30T07:52:29;30.23;;;15.18;;
22652;SDS011;11493;43.344;26.226;2024-01-30T07:54:56;28.02;;;14.65;;
22652;SDS011;11493;43.344;26.226;2024-01-30T07:57:23;24.88;;;16.17;;
22652;SDS011;11493;43.344;26.226;2024-01-30T07:59:51;23.40;;;14.30;;
22652;SDS011;11493;43.344;26.226;2024-01-30T08:02:18;34.88;;;16.73;;
22652;SDS011;11493;43.344;26.226;2024-01-30T08:04:45;29.83;;;13.38;;
22652;SDS011;11493;43.344;26.226;2024-01-30T08:07:15;23.92;;;14.05;;
22652;SDS011;11493;43.344;26.226;2024-01-30T08:09:44;29.33;;;15.50;;
22652;SDS011;11493;43.344;26.226;2024-01-30T08:12:11;22.90;;;13.25;;
22652;SDS011;11493;43.344;26.226;2024-01-30T08:14:40;28.85;;;14.35;;
22652;SDS011;11493;43.344;26.226;2024-01-30T08:17:07;26.05;;;16.20;;
22652;SDS011;11493;43.344;26.226;2024-01-30T08:19:35;27.92;;;15.02;;
22652;SDS011;11493;43.344;26.226;2024-01-30T08:22:02;25.20;;;16.33;;
22652;SDS011;11493;43.344;26.226;2024-01-30T08:24:29;33.63;;;17.90;;
22652;SDS011;11493;43.344;26.226;2024-01-30T08:26:57;30.45;;;15.75;;
22652;SDS011;11493;43.344;26.226;2024-01-30T08:29:25;31.52;;;16.83;;
22652;SDS011;11493;43.344;26.226;2024-01-30T08:31:52;23.98;;;14.25;;
22652;SDS011;11493;43.344;26.226;2024-01-30T08:34:20;31.67;;;15.20;;
22652;SDS011;11493;43.344;26.226;2024-01-30T08:36:47;32.78;;;15.45;;
22652;SDS011;11493;43.344;26.226;2024-01-30T08:39:14;40.55;;;21.98;;
22652;SDS011;11493;43.344;26.226;2024-01-30T08:41:42;50.40;;;28.33;;
22652;SDS011;11493;43.344;26.226;2024-01-30T08:44:09;38.13;;;21.42;;
22652;SDS011;11493;43.344;26.226;2024-01-30T08:46:37;25.90;;;14.30;;
22652;SDS011;11493;43.344;26.226;2024-01-30T08:49:05;21.95;;;13.25;;
22652;SDS011;11493;43.344;26.226;2024-01-30T08:51:32;29.48;;;16.73;;
22652;SDS011;11493;43.344;26.226;2024-01-30T08:54:00;31.65;;;18.17;;
22652;SDS011;11493;43.344;26.226;2024-01-30T08:56:28;31.65;;;17.38;;
22652;SDS011;11493;43.344;26.226;2024-01-30T08:58:55;27.33;;;16.38;;
22652;SDS011;11493;43.344;26.226;2024-01-30T09:01:22;29.70;;;14.95;;
22652;SDS011;11493;43.344;26.226;2024-01-30T09:03:49;20.90;;;12.05;;
22652;SDS011;11493;43.344;26.226;2024-01-30T09:06:16;20.90;;;12.25;;
22652;SDS011;11493;43.344;26.226;2024-01-30T09:08:44;22.63;;;13.10;;
22652;SDS011;11493;43.344;26.226;2024-01-30T09:11:12;27.08;;;15.00;;
22652;SDS011;11493;43.344;26.226;2024-01-30T09:13:40;31.48;;;18.20;;
22652;SDS011;11493;43.344;26.226;2024-01-30T09:16:08;25.15;;;14.13;;
22652;SDS011;11493;43.344;26.226;2024-01-30T09:18:35;29.60;;;16.10;;
22652;SDS011;11493;43.344;26.226;2024-01-30T09:21:02;24.15;;;12.98;;
22652;SDS011;11493;43.344;26.226;2024-01-30T09:23:30;25.65;;;14.32;;
22652;SDS011;11493;43.344;26.226;2024-01-30T09:25:57;28.20;;;15.60;;
22652;SDS011;11493;43.344;26.226;2024-01-30T09:28:24;28.08;;;16.15;;
22652;SDS011;11493;43.344;26.226;2024-01-30T09:30:53;29.20;;;16.05;;
22652;SDS011;11493;43.344;26.226;2024-01-30T09:33:20;20.10;;;12.88;;
22652;SDS011;11493;43.344;26.226;2024-01-30T09:35:47;24.02;;;14.88;;
22652;SDS011;11493;43.344;26.226;2024-01-30T09:38:15;33.25;;;17.85;;
22652;SDS011;11493;43.344;26.226;2024-01-30T09:40:42;25.85;;;13.48;;
22652;SDS011;11493;43.344;26.226;2024-01-30T09:43:09;25.95;;;15.02;;
22652;SDS011;11493;43.344;26.226;2024-01-30T09:45:49;24.58;;;13.95;;
22652;SDS011;11493;43.344;26.226;2024-01-30T09:48:17;29.27;;;16.15;;
22652;SDS011;11493;43.344;26.226;2024-01-30T09:50:44;36.67;;;16.70;;
22652;SDS011;11493;43.344;26.226;2024-01-30T09:53:13;37.00;;;18.17;;
22652;SDS011;11493;43.344;26.226;2024-01-30T09:55:42;38.70;;;20.20;;
22652;SDS011;11493;43.344;26.226;2024-01-30T09:58:09;24.58;;;14.10;;
22652;SDS011;11493;43.344;26.226;2024-01-30T10:00:36;37.80;;;18.15;;
22652;SDS011;11493;43.344;26.226;2024-01-30T10:03:03;40.75;;;22.92;;
22652;SDS011;11493;43.344;26.226;2024-01-30T10:05:31;29.67;;;16.38;;
22652;SDS011;11493;43.344;26.226;2024-01-30T10:08:07;48.40;;;24.05;;
22652;SDS011;11493;43.344;26.226;2024-01-30T10:10:37;59.22;;;27.48;;
22652;SDS011;11493;43.344;26.226;2024-01-30T10:13:04;36.25;;;19.85;;
22652;SDS011;11493;43.344;26.226;2024-01-30T10:15:32;26.50;;;15.65;;
22652;SDS011;11493;43.344;26.226;2024-01-30T10:18:02;28.33;;;16.27;;
22652;SDS011;11493;43.344;26.226;2024-01-30T10:20:29;37.20;;;19.80;;
22652;SDS011;11493;43.344;26.226;2024-01-30T10:22:56;27.33;;;15.15;;
22652;SDS011;11493;43.344;26.226;2024-01-30T10:25:25;19.85;;;13.05;;
22652;SDS011;11493;43.344;26.226;2024-01-30T10:27:53;23.73;;;14.15;;
22652;SDS011;11493;43.344;26.226;2024-01-30T10:30:23;55.03;;;29.35;;
22652;SDS011;11493;43.344;26.226;2024-01-30T10:32:51;34.15;;;18.63;;
22652;SDS011;11493;43.344;26.226;2024-01-30T10:35:18;31.13;;;17.50;;
22652;SDS011;11493;43.344;26.226;2024-01-30T10:37:47;29.98;;;16.98;;
22652;SDS011;11493;43.344;26.226;2024-01-30T10:40:15;32.47;;;17.63;;
22652;SDS011;11493;43.344;26.226;2024-01-30T10:42:45;37.50;;;18.58;;
22652;SDS011;11493;43.344;26.226;2024-01-30T10:45:13;21.05;;;12.75;;
22652;SDS011;11493;43.344;26.226;2024-01-30T10:47:41;20.27;;;12.30;;
22652;SDS011;11493;43.344;26.226;2024-01-30T10:50:15;19.48;;;11.95;;
22652;SDS011;11493;43.344;26.226;2024-01-30T10:52:42;23.20;;;13.60;;
22652;SDS011;11493;43.344;26.226;2024-01-30T10:55:10;20.67;;;11.60;;
22652;SDS011;11493;43.344;26.226;2024-01-30T10:57:38;24.48;;;14.77;;
22652;SDS011;11493;43.344;26.226;2024-01-30T11:00:06;19.92;;;12.00;;
22652;SDS011;11493;43.344;26.226;2024-01-30T11:02:47;29.55;;;14.00;;
22652;SDS011;11493;43.344;26.226;2024-01-30T11:05:14;18.92;;;11.43;;
22652;SDS011;11493;43.344;26.226;2024-01-30T11:07:49;28.58;;;14.65;;
22652;SDS011;11493;43.344;26.226;2024-01-30T11:10:17;32.55;;;19.55;;
22652;SDS011;11493;43.344;26.226;2024-01-30T11:12:45;69.65;;;33.85;;
22652;SDS011;11493;43.344;26.226;2024-01-30T11:15:14;41.03;;;22.70;;
22652;SDS011;11493;43.344;26.226;2024-01-30T11:17:51;29.55;;;15.90;;
22652;SDS011;11493;43.344;26.226;2024-01-30T11:22:55;20.98;;;10.75;;
22652;SDS011;11493;43.344;26.226;2024-01-30T11:25:24;19.33;;;9.40;;
22652;SDS011;11493;43.344;26.226;2024-01-30T11:27:55;48.17;;;26.65;;
22652;SDS011;11493;43.344;26.226;2024-01-30T11:33:04;25.80;;;11.75;;
22652;SDS011;11493;43.344;26.226;2024-01-30T11:35:33;20.13;;;12.77;;
22652;SDS011;11493;43.344;26.226;2024-01-30T11:38:04;27.10;;;15.52;;
22652;SDS011;11493;43.344;26.226;2024-01-30T11:40:33;18.30;;;10.93;;
22652;SDS011;11493;43.344;26.226;2024-01-30T11:43:01;24.02;;;12.50;;
22652;SDS011;11493;43.344;26.226;2024-01-30T11:45:30;17.52;;;11.18;;
22652;SDS011;11493;43.344;26.226;2024-01-30T11:47:58;28.48;;;12.25;;
22652;SDS011;11493;43.344;26.226;2024-01-30T11:50:32;21.45;;;11.70;;
22652;SDS011;11493;43.344;26.226;2024-01-30T11:53:00;18.85;;;10.80;;
22652;SDS011;11493;43.344;26.226;2024-01-30T11:55:28;14.05;;;9.50;;
22652;SDS011;11493;43.344;26.226;2024-01-30T11:58:01;17.20;;;10.15;;
22652;SDS011;11493;43.344;26.226;2024-01-30T12:00:29;20.25;;;11.30;;
22652;SDS011;11493;43.344;26.226;2024-01-30T12:02:58;16.33;;;10.55;;
22652;SDS011;11493;43.344;26.226;2024-01-30T12:05:27;20.80;;;12.52;;
22652;SDS011;11493;43.344;26.226;2024-01-30T12:07:55;18.92;;;10.68;;
22652;SDS011;11493;43.344;26.226;2024-01-30T12:10:27;17.40;;;10.43;;
22652;SDS011;11493;43.344;26.226;2024-01-30T12:12:55;16.30;;;9.50;;
22652;SDS011;11493;43.344;26.226;2024-01-30T12:15:23;26.60;;;11.50;;
22652;SDS011;11493;43.344;26.226;2024-01-30T12:17:51;18.70;;;11.18;;
22652;SDS011;11493;43.344;26.226;2024-01-30T12:20:19;21.13;;;13.13;;
22652;SDS011;11493;43.344;26.226;2024-01-30T12:22:47;22.63;;;12.73;;
22652;SDS011;11493;43.344;26.226;2024-01-30T12:25:15;22.20;;;12.10;;
22652;SDS011;11493;43.344;26.226;2024-01-30T12:27:45;21.98;;;11.00;;
22652;SDS011;11493;43.344;26.226;2024-01-30T12:30:16;21.05;;;11.35;;
22652;SDS011;11493;43.344;26.226;2024-01-30T12:32:45;39.72;;;20.00;;
22652;SDS011;11493;43.344;26.226;2024-01-30T12:35:16;61.50;;;27.75;;
22652;SDS011;11493;43.344;26.226;2024-01-30T12:37:45;27.98;;;14.85;;
22652;SDS011;11493;43.344;26.226;2024-01-30T12:40:13;32.65;;;17.38;;
22652;SDS011;11493;43.344;26.226;2024-01-30T12:42:42;28.15;;;14.65;;
22652;SDS011;11493;43.344;26.226;2024-01-30T12:45:13;15.63;;;9.48;;
22652;SDS011;11493;43.344;26.226;2024-01-30T12:47:41;24.92;;;10.60;;
22652;SDS011;11493;43.344;26.226;2024-01-30T12:50:09;18.35;;;11.02;;
22652;SDS011;11493;43.344;26.226;2024-01-30T12:52:36;20.95;;;10.73;;
22652;SDS011;11493;43.344;26.226;2024-01-30T12:55:04;25.60;;;13.10;;
22652;SDS011;11493;43.344;26.226;2024-01-30T12:57:31;20.42;;;11.45;;
22652;SDS011;11493;43.344;26.226;2024-01-30T12:59:59;23.17;;;11.63;;
22652;SDS011;11493;43.344;26.226;2024-01-30T13:02:26;23.40;;;11.75;;
22652;SDS011;11493;43.344;26.226;2024-01-30T13:05:02;20.05;;;11.63;;
22652;SDS011;11493;43.344;26.226;2024-01-30T13:07:30;19.15;;;10.95;;
22652;SDS011;11493;43.344;26.226;2024-01-30T13:09:58;21.38;;;12.02;;
22652;SDS011;11493;43.344;26.226;2024-01-30T13:12:30;25.33;;;13.15;;
22652;SDS011;11493;43.344;26.226;2024-01-30T13:14:59;20.52;;;11.27;;
22652;SDS011;11493;43.344;26.226;2024-01-30T13:17:31;18.92;;;11.18;;
22652;SDS011;11493;43.344;26.226;2024-01-30T13:20:00;19.58;;;11.13;;
22652;SDS011;11493;43.344;26.226;2024-01-30T13:22:37;23.80;;;12.98;;
22652;SDS011;11493;43.344;26.226;2024-01-30T13:25:06;20.20;;;11.32;;
22652;SDS011;11493;43.344;26.226;2024-01-30T13:27:35;22.50;;;12.65;;
22652;SDS011;11493;43.344;26.226;2024-01-30T13:30:03;21.85;;;12.00;;
22652;SDS011;11493;43.344;26.226;2024-01-30T13:32:30;26.25;;;14.15;;
22652;SDS011;11493;43.344;26.226;2024-01-30T13:34:58;20.60;;;11.48;;
22652;SDS011;11493;43.344;26.226;2024-01-30T13:37:25;22.95;;;13.10;;
22652;SDS011;11493;43.344;26.226;2024-01-30T13:39:52;17.48;;;10.52;;
22652;SDS011;11493;43.344;26.226;2024-01-30T13:42:19;17.05;;;10.55;;
22652;SDS011;11493;43.344;26.226;2024-01-30T13:44:47;25.20;;;13.02;;
22652;SDS011;11493;43.344;26.226;2024-01-30T13:47:14;21.08;;;12.90;;
22652;SDS011;11493;43.344;26.226;2024-01-30T13:49:41;18.02;;;10.98;;
22652;SDS011;11493;43.344;26.226;2024-01-30T13:52:08;17.95;;;11.38;;
22652;SDS011;11493;43.344;26.226;2024-01-30T13:54:36;20.80;;;11.90;;
22652;SDS011;11493;43.344;26.226;2024-01-30T13:57:03;27.73;;;12.13;;
22652;SDS011;11493;43.344;26.226;2024-01-30T13:59:30;20.08;;;10.55;;
22652;SDS011;11493;43.344;26.226;2024-01-30T14:01:57;19.58;;;12.20;;
22652;SDS011;11493;43.344;26.226;2024-01-30T14:04:24;22.08;;;11.50;;
22652;SDS011;11493;43.344;26.226;2024-01-30T14:06:52;24.02;;;11.43;;
22652;SDS011;11493;43.344;26.226;2024-01-30T14:09:30;29.13;;;13.27;;
22652;SDS011;11493;43.344;26.226;2024-01-30T14:11:59;23.10;;;11.80;;
22652;SDS011;11493;43.344;26.226;2024-01-30T14:14:26;22.35;;;12.55;;
22652;SDS011;11493;43.344;26.226;2024-01-30T14:16:53;22.55;;;12.48;;